createdAt,value
2018-07-31T00:02:18.321Z,99695.52
2018-07-31T00:04:49.779Z,99696.39
2018-07-31T00:07:21.437Z,99690.07
2018-07-31T00:09:56.232Z,99693.84
2018-07-31T00:12:29.673Z,99689.60
2018-07-31T00:15:24.500Z,99690.75
2018-07-31T00:18:02.045Z,99684.63
2018-07-31T00:20:36.145Z,99690.31
2018-07-31T00:23:45.333Z,99643.45
2018-07-31T00:26:22.067Z,99689.78
2018-07-31T00:28:53.770Z,99695.08
2018-07-31T00:31:26.958Z,99689.13
2018-07-31T00:34:00.664Z,99661.73
2018-07-31T00:36:33.106Z,99687.50
2018-07-31T00:39:06.834Z,99685.87
2018-07-31T00:41:41.663Z,99683.75
2018-07-31T00:44:14.907Z,99680.35
2018-07-31T00:46:46.291Z,99683.94
2018-07-31T00:49:18.644Z,99680.22
2018-07-31T00:51:52.485Z,99680.58
2018-07-31T00:54:25.778Z,99683.13
2018-07-31T00:56:57.546Z,99686.45
2018-07-31T00:59:29.189Z,99681.86
2018-07-31T01:02:01.292Z,99680.06
2018-07-31T01:04:32.941Z,99686.24
2018-07-31T01:07:05.618Z,99685.48
2018-07-31T01:09:37.459Z,99679.04
2018-07-31T01:12:10.901Z,99680.66
2018-07-31T01:14:42.527Z,99680.06
2018-07-31T01:17:15.143Z,99655.32
2018-07-31T01:19:48.384Z,99676.02
2018-07-31T01:22:22.655Z,99678.01
2018-07-31T01:24:55.434Z,99676.97
2018-07-31T01:27:28.920Z,99677.31
2018-07-31T01:30:01.198Z,99678.13
2018-07-31T01:32:35.526Z,99677.92
2018-07-31T01:35:19.404Z,99678.38
2018-07-31T01:37:51.752Z,99684.05
2018-07-31T01:40:25.565Z,99685.05
2018-07-31T01:42:57.402Z,99681.06
2018-07-31T01:45:28.986Z,99684.72
2018-07-31T01:48:00.531Z,99655.35
2018-07-31T01:50:32.637Z,99683.00
2018-07-31T01:53:07.197Z,99681.63
2018-07-31T01:55:39.465Z,99683.66
2018-07-31T01:58:11.863Z,99685.11
2018-07-31T02:00:44.008Z,99658.06
2018-07-31T02:03:15.640Z,99678.47
2018-07-31T02:05:47.570Z,99677.76
2018-07-31T02:08:19.314Z,99675.59
2018-07-31T02:10:51.311Z,99675.02
2018-07-31T02:13:24.259Z,99672.56
2018-07-31T02:15:56.393Z,99666.04
2018-07-31T02:18:28.762Z,99675.09
2018-07-31T02:21:04.242Z,99664.12
2018-07-31T02:23:38.880Z,99671.55
2018-07-31T02:26:13.848Z,99672.42
2018-07-31T02:28:45.856Z,99674.92
2018-07-31T02:31:25.933Z,99675.23
2018-07-31T02:33:58.676Z,99676.66
2018-07-31T02:36:33.327Z,99673.89
2018-07-31T02:39:09.683Z,99673.31
2018-07-31T02:41:42.721Z,99679.33
2018-07-31T02:44:24.385Z,99673.84
2018-07-31T02:46:57.581Z,99675.53
2018-07-31T02:49:29.923Z,99680.23
2018-07-31T02:52:03.485Z,99673.73
2018-07-31T02:55:01.151Z,99667.52
2018-07-31T02:57:33.107Z,99681.80
2018-07-31T03:00:07.393Z,99680.14
2018-07-31T03:02:39.425Z,99672.20
2018-07-31T03:05:12.368Z,99673.03
2018-07-31T03:07:46.424Z,99675.80
2018-07-31T03:10:20.937Z,99673.38
2018-07-31T03:12:53.987Z,99675.61
2018-07-31T03:15:28.386Z,99681.70
2018-07-31T03:18:00.539Z,99676.80
2018-07-31T03:20:34.002Z,99680.83
2018-07-31T03:23:06.557Z,99680.84
2018-07-31T03:25:38.230Z,99686.33
2018-07-31T03:28:11.051Z,99681.67
2018-07-31T03:30:42.596Z,99686.05
2018-07-31T03:33:14.658Z,99657.09
2018-07-31T03:35:47.690Z,99682.13
2018-07-31T03:38:19.309Z,99682.89
2018-07-31T03:40:49.995Z,99678.78
2018-07-31T03:43:21.816Z,99677.45
2018-07-31T03:45:53.402Z,99674.41
2018-07-31T03:48:24.048Z,99674.20
2018-07-31T03:50:56.584Z,99676.73
2018-07-31T03:53:27.350Z,99675.13
2018-07-31T03:56:05.584Z,99676.41
2018-07-31T03:58:39.254Z,99678.78
2018-07-31T04:01:13.328Z,99686.75
2018-07-31T04:03:46.643Z,99676.61
2018-07-31T04:06:18.407Z,99681.48
2018-07-31T04:08:54.526Z,99682.89
2018-07-31T04:11:26.258Z,99682.33
2018-07-31T04:13:58.639Z,99685.34
2018-07-31T04:16:31.142Z,99694.13
2018-07-31T04:19:03.264Z,99681.75
2018-07-31T04:21:35.785Z,99693.59
2018-07-31T04:24:08.446Z,99697.25
2018-07-31T04:26:40.636Z,99690.48
2018-07-31T04:29:13.026Z,99693.98
2018-07-31T04:31:46.081Z,99694.65
2018-07-31T04:34:20.810Z,99700.87
2018-07-31T04:36:54.229Z,99697.77
2018-07-31T04:39:26.617Z,99701.04
2018-07-31T04:41:58.645Z,99700.47
2018-07-31T04:44:30.810Z,99710.00
2018-07-31T04:47:04.079Z,99712.70
2018-07-31T04:49:41.268Z,99709.82
2018-07-31T04:52:12.976Z,99712.70
2018-07-31T04:54:46.513Z,99715.27
2018-07-31T04:57:21.456Z,99711.90
2018-07-31T04:59:53.112Z,99728.15
2018-07-31T05:02:25.896Z,99713.97
2018-07-31T05:04:59.131Z,99722.16
2018-07-31T05:07:31.706Z,99721.55
2018-07-31T05:10:02.570Z,99724.30
2018-07-31T05:12:33.857Z,99727.80
2018-07-31T05:15:07.210Z,99728.61
2018-07-31T05:17:40.323Z,99725.16
2018-07-31T05:20:13.666Z,99709.85
2018-07-31T05:22:46.957Z,99725.34
2018-07-31T05:25:20.533Z,99724.56
2018-07-31T05:27:57.489Z,99735.17
2018-07-31T05:30:33.303Z,99733.73
2018-07-31T05:33:06.571Z,99739.23
2018-07-31T05:35:38.679Z,99738.41
2018-07-31T05:38:09.406Z,99736.56
2018-07-31T05:40:43.058Z,99738.85
2018-07-31T05:43:14.664Z,99740.09
2018-07-31T05:45:56.649Z,99746.67
2018-07-31T05:48:31.644Z,99739.16
2018-07-31T05:51:07.232Z,99742.26
2018-07-31T05:53:41.099Z,99743.30
2018-07-31T05:56:13.177Z,99745.74
2018-07-31T05:58:44.612Z,99748.02
2018-07-31T06:01:17.384Z,99747.97
2018-07-31T06:03:49.266Z,99744.54
2018-07-31T06:06:23.066Z,99745.25
2018-07-31T06:08:57.243Z,99747.45
2018-07-31T06:11:30.198Z,99744.59
2018-07-31T06:14:02.950Z,99754.41
2018-07-31T06:16:38.974Z,99754.27
2018-07-31T06:19:11.388Z,99755.05
2018-07-31T06:21:44.886Z,99755.66
2018-07-31T06:24:18.501Z,99756.59
2018-07-31T06:26:50.237Z,99764.78
2018-07-31T06:29:23.645Z,99770.29
2018-07-31T06:31:54.425Z,99762.91
2018-07-31T06:34:30.429Z,99765.61
2018-07-31T06:37:09.030Z,99767.48
2018-07-31T06:39:43.926Z,99769.12
2018-07-31T06:42:18.193Z,99768.44
2018-07-31T06:44:53.410Z,99764.58
2018-07-31T06:47:26.969Z,99770.70
2018-07-31T06:49:58.712Z,99768.88
2018-07-31T06:52:31.321Z,99769.38
2018-07-31T06:55:03.558Z,99779.27
2018-07-31T06:57:36.756Z,99779.30
2018-07-31T07:00:10.365Z,99782.55
2018-07-31T07:03:00.322Z,99779.55
2018-07-31T07:05:37.385Z,99779.06
2018-07-31T07:08:10.538Z,99784.78
2018-07-31T07:10:42.136Z,99785.38
2018-07-31T07:13:14.414Z,99785.38
2018-07-31T07:15:48.715Z,99793.16
2018-07-31T07:18:22.244Z,99794.41
2018-07-31T07:20:55.447Z,99788.89
2018-07-31T07:23:29.658Z,99792.19
2018-07-31T07:26:01.710Z,99791.22
2018-07-31T07:28:33.454Z,99792.94
2018-07-31T07:31:05.992Z,99798.17
2018-07-31T07:33:40.578Z,99798.45
2018-07-31T07:36:15.299Z,99798.73
2018-07-31T07:38:50.125Z,99797.97
2018-07-31T07:41:23.289Z,99800.03
2018-07-31T07:43:56.829Z,99800.50
2018-07-31T07:46:29.416Z,99796.95
2018-07-31T07:49:03.554Z,99806.56
2018-07-31T07:51:36.499Z,99801.97
2018-07-31T07:54:13.783Z,99806.62
2018-07-31T07:56:48.491Z,99801.38
2018-07-31T07:59:22.706Z,99803.47
2018-07-31T08:01:57.086Z,99801.47
2018-07-31T08:04:32.612Z,99801.52
2018-07-31T08:07:09.878Z,99792.91
2018-07-31T08:09:46.234Z,99798.41
2018-07-31T08:12:20.621Z,99803.42
2018-07-31T08:14:56.066Z,99794.45
2018-07-31T08:17:33.448Z,99798.05
2018-07-31T08:20:07.944Z,99802.47
2018-07-31T08:22:46.476Z,99790.36
2018-07-31T08:28:00.106Z,99809.39
2018-07-31T08:30:44.662Z,99811.11
2018-07-31T08:33:25.543Z,99812.87
2018-07-31T08:36:00.919Z,99816.41
2018-07-31T08:38:34.543Z,99816.16
2018-07-31T08:41:08.273Z,99820.28
2018-07-31T08:43:41.763Z,99816.00
2018-07-31T08:46:21.879Z,99809.02
2018-07-31T08:48:54.651Z,99804.59
2018-07-31T08:51:42.491Z,99809.80
2018-07-31T08:54:16.442Z,99805.50
2018-07-31T08:56:52.132Z,99810.13
2018-07-31T08:59:27.505Z,99814.66
2018-07-31T09:02:00.100Z,99808.92
2018-07-31T09:04:39.355Z,99822.47
2018-07-31T09:07:16.052Z,99803.14
2018-07-31T09:09:48.583Z,99811.98
2018-07-31T09:12:23.925Z,99815.44
2018-07-31T09:14:57.128Z,99813.64
2018-07-31T09:17:32.115Z,99812.23
2018-07-31T09:20:06.707Z,99820.33
2018-07-31T09:22:39.489Z,99811.50
2018-07-31T09:25:25.681Z,99814.90
2018-07-31T09:28:00.759Z,99809.77
2018-07-31T09:30:34.092Z,99810.48
2018-07-31T09:33:08.475Z,99797.41
2018-07-31T09:35:40.764Z,99798.19
2018-07-31T09:38:13.733Z,99800.97
2018-07-31T09:40:46.994Z,99793.38
2018-07-31T09:43:20.014Z,99788.25
2018-07-31T09:45:53.714Z,99801.92
2018-07-31T09:48:26.931Z,99803.45
2018-07-31T09:51:00.100Z,99798.45
2018-07-31T09:53:33.200Z,99794.41
2018-07-31T09:56:06.810Z,99796.77
2018-07-31T09:58:39.513Z,99802.20
2018-07-31T10:01:19.069Z,99796.47
2018-07-31T10:03:51.586Z,99798.44
2018-07-31T10:06:25.569Z,99796.03
2018-07-31T10:08:59.529Z,99798.96
2018-07-31T10:11:31.809Z,99799.89
2018-07-31T10:14:04.765Z,99793.05
2018-07-31T10:16:39.317Z,99792.11
2018-07-31T10:19:23.064Z,99785.77
2018-07-31T10:21:58.141Z,99793.78
2018-07-31T10:24:37.104Z,99796.02
2018-07-31T10:27:15.864Z,99791.88
2018-07-31T10:29:50.465Z,99792.70
2018-07-31T10:32:28.388Z,99793.33
2018-07-31T10:35:01.697Z,99785.00
2018-07-31T10:37:35.482Z,99782.95
2018-07-31T10:40:09.243Z,99783.74
2018-07-31T10:42:42.477Z,99784.48
2018-07-31T10:45:17.316Z,99781.77
2018-07-31T10:47:52.672Z,99782.19
2018-07-31T10:50:24.289Z,99780.77
2018-07-31T10:52:58.256Z,99782.75
2018-07-31T10:55:33.117Z,99778.00
2018-07-31T10:58:06.317Z,99777.82
2018-07-31T11:00:47.592Z,99774.38
2018-07-31T11:03:22.903Z,99776.22
2018-07-31T11:06:11.754Z,99766.51
2018-07-31T11:08:47.586Z,99774.51
2018-07-31T11:11:21.678Z,99778.09
2018-07-31T11:13:54.421Z,99767.41
2018-07-31T11:16:36.424Z,99762.20
2018-07-31T11:19:08.141Z,99759.09
2018-07-31T11:21:39.735Z,99724.44
2018-07-31T11:24:13.343Z,99767.67
2018-07-31T11:26:45.033Z,99767.92
2018-07-31T11:29:17.124Z,99765.48
2018-07-31T11:31:50.814Z,99762.94
2018-07-31T11:34:23.513Z,99770.66
2018-07-31T11:36:58.032Z,99767.93
2018-07-31T11:39:32.910Z,99773.30
2018-07-31T11:42:05.457Z,99765.05
2018-07-31T11:44:38.574Z,99765.72
2018-07-31T11:47:11.660Z,99763.53
2018-07-31T11:49:44.356Z,99763.09
2018-07-31T11:52:18.600Z,99762.57
2018-07-31T11:54:53.381Z,99758.58
2018-07-31T11:57:31.750Z,99756.63
2018-07-31T12:00:05.571Z,99757.91
2018-07-31T12:02:40.139Z,99744.38
2018-07-31T12:05:12.438Z,99743.79
2018-07-31T12:07:45.048Z,99741.63
2018-07-31T12:10:18.629Z,99753.12
2018-07-31T12:12:50.301Z,99748.55
2018-07-31T12:15:24.789Z,99741.00
2018-07-31T12:18:01.438Z,99751.69
2018-07-31T12:20:34.479Z,99752.36
2018-07-31T12:23:09.108Z,99759.47
2018-07-31T12:25:42.157Z,99745.39
2018-07-31T12:28:14.395Z,99734.67
2018-07-31T12:30:48.094Z,99739.94
2018-07-31T12:33:19.759Z,99740.86
2018-07-31T12:35:52.498Z,99747.72
2018-07-31T12:38:26.660Z,99734.20
2018-07-31T12:40:58.372Z,99742.69
2018-07-31T12:43:32.518Z,99735.00
2018-07-31T12:46:08.703Z,99747.80
2018-07-31T12:48:42.321Z,99739.50
2018-07-31T12:51:24.666Z,99741.64
2018-07-31T12:53:58.446Z,99748.22
2018-07-31T12:56:31.053Z,99746.12
2018-07-31T12:59:05.842Z,99742.23
2018-07-31T13:01:39.486Z,99743.45
2018-07-31T13:04:12.093Z,99742.72
2018-07-31T13:06:46.741Z,99750.03
2018-07-31T13:09:20.803Z,99738.58
2018-07-31T13:11:53.703Z,99746.77
2018-07-31T13:14:25.882Z,99728.92
2018-07-31T13:17:06.525Z,99721.48
2018-07-31T13:19:42.103Z,99748.59
2018-07-31T13:22:19.684Z,99744.18
2018-07-31T13:24:54.522Z,99726.08
2018-07-31T13:27:57.287Z,99732.63
2018-07-31T13:30:36.364Z,99724.44
2018-07-31T13:33:10.537Z,99735.30
2018-07-31T13:35:47.039Z,99731.32
2018-07-31T13:38:23.492Z,99718.67
2018-07-31T13:40:56.895Z,99726.91
2018-07-31T13:43:31.470Z,99727.86
2018-07-31T13:46:06.987Z,99716.53
2018-07-31T13:48:41.324Z,99716.48
2018-07-31T13:51:13.058Z,99713.19
2018-07-31T13:53:45.784Z,99723.42
2018-07-31T13:56:19.538Z,99716.09
2018-07-31T13:58:52.768Z,99725.08
2018-07-31T14:01:24.962Z,99720.27
2018-07-31T14:03:57.628Z,99715.02
2018-07-31T14:06:40.241Z,99717.62
2018-07-31T14:09:24.692Z,99724.81
2018-07-31T14:11:57.954Z,99725.73
2018-07-31T14:14:30.568Z,99720.81
2018-07-31T14:17:05.782Z,99722.89
2018-07-31T14:19:37.960Z,99724.66
2018-07-31T14:22:10.821Z,99730.69
2018-07-31T14:24:46.378Z,99725.06
2018-07-31T14:27:21.372Z,99726.66
2018-07-31T14:29:56.297Z,99722.69
2018-07-31T14:32:28.744Z,99722.27
2018-07-31T14:35:02.040Z,99716.25
2018-07-31T14:37:34.804Z,99717.43
2018-07-31T14:40:12.157Z,99718.23
2018-07-31T14:42:45.492Z,99720.44
2018-07-31T14:45:19.819Z,99723.89
2018-07-31T14:47:56.822Z,99720.86
2018-07-31T14:50:35.834Z,99717.80
2018-07-31T14:53:13.831Z,99721.20
2018-07-31T14:55:50.032Z,99725.66
2018-07-31T14:58:23.630Z,99717.28
2018-07-31T15:01:00.613Z,99716.45
2018-07-31T15:03:35.905Z,99715.80
2018-07-31T15:06:09.356Z,99708.60
2018-07-31T15:08:41.115Z,99720.64
2018-07-31T15:11:15.051Z,99718.22
2018-07-31T15:13:48.653Z,99715.77
2018-07-31T15:16:21.591Z,99705.48
2018-07-31T15:18:54.268Z,99712.90
2018-07-31T15:21:28.792Z,99719.84
2018-07-31T15:24:03.642Z,99706.64
2018-07-31T15:26:36.135Z,99706.07
2018-07-31T15:29:13.021Z,99704.85
2018-07-31T15:31:48.166Z,99708.55
2018-07-31T15:34:30.064Z,99711.89
2018-07-31T15:37:03.633Z,99712.00
2018-07-31T15:39:37.132Z,99716.86
2018-07-31T15:42:11.189Z,99718.98
2018-07-31T15:44:47.251Z,99719.02
2018-07-31T15:47:22.469Z,99708.80
2018-07-31T15:49:55.350Z,99709.50
2018-07-31T15:52:32.113Z,99713.34
2018-07-31T15:55:07.801Z,99717.02
2018-07-31T15:57:46.036Z,99716.33
2018-07-31T16:00:19.743Z,99710.13
2018-07-31T16:02:53.210Z,99702.89
2018-07-31T16:05:27.322Z,99720.13
2018-07-31T16:08:01.276Z,99713.52
2018-07-31T16:10:35.706Z,99719.02
2018-07-31T16:13:09.094Z,99724.78
2018-07-31T16:15:43.139Z,99718.26
2018-07-31T16:18:20.382Z,99720.16
2018-07-31T16:20:55.045Z,99723.58
2018-07-31T16:23:29.439Z,99730.66
2018-07-31T16:26:03.998Z,99735.02
2018-07-31T16:28:37.614Z,99730.84
2018-07-31T16:31:13.850Z,99731.95
2018-07-31T16:33:50.830Z,99719.03
2018-07-31T16:36:25.360Z,99730.09
2018-07-31T16:39:07.994Z,99725.19
2018-07-31T16:41:45.484Z,99728.63
2018-07-31T16:44:22.125Z,99733.00
2018-07-31T16:47:01.889Z,99731.44
2018-07-31T16:49:37.475Z,99742.09
2018-07-31T16:52:12.203Z,99735.77
2018-07-31T16:54:45.037Z,99746.72
2018-07-31T16:57:20.239Z,99734.91
2018-07-31T16:59:59.022Z,99733.25
2018-07-31T17:02:45.270Z,99736.05
2018-07-31T17:05:31.556Z,99726.96
2018-07-31T17:08:06.534Z,99739.45
2018-07-31T17:10:44.109Z,99722.60
2018-07-31T17:13:18.150Z,99735.59
2018-07-31T17:15:51.987Z,99744.61
2018-07-31T17:18:26.687Z,99745.28
2018-07-31T17:21:03.169Z,99742.67
2018-07-31T17:23:39.241Z,99747.42
2018-07-31T17:26:19.345Z,99742.23
2018-07-31T17:28:55.158Z,99758.44
2018-07-31T17:31:28.010Z,99757.53
2018-07-31T17:34:01.846Z,99762.07
2018-07-31T17:36:41.449Z,99748.72
2018-07-31T17:39:15.364Z,99766.27
2018-07-31T17:41:49.378Z,99772.41
2018-07-31T17:44:24.356Z,99772.94
2018-07-31T17:46:59.997Z,99773.73
2018-07-31T17:52:15.840Z,99773.73
2018-07-31T17:54:50.083Z,99764.47
2018-07-31T17:57:23.226Z,99772.97
2018-07-31T17:59:58.630Z,99757.03
2018-07-31T18:02:31.857Z,99770.23
2018-07-31T18:05:04.537Z,99772.27
2018-07-31T18:07:37.452Z,99773.07
2018-07-31T18:10:11.349Z,99773.53
2018-07-31T18:12:49.955Z,99771.25
2018-07-31T18:15:36.235Z,99771.63
2018-07-31T18:18:14.812Z,99768.62
2018-07-31T18:20:50.286Z,99775.34
2018-07-31T18:23:30.472Z,99779.06
2018-07-31T18:26:05.265Z,99785.41
2018-07-31T18:28:50.289Z,99777.24
2018-07-31T18:31:27.688Z,99777.83
2018-07-31T18:34:03.365Z,99781.83
2018-07-31T18:36:42.740Z,99779.33
2018-07-31T18:39:18.564Z,99779.92
2018-07-31T18:41:56.299Z,99777.83
2018-07-31T18:44:35.453Z,99781.83
2018-07-31T18:47:10.689Z,99780.64
2018-07-31T18:49:44.555Z,99785.53
2018-07-31T18:54:59.775Z,99790.73
2018-07-31T18:57:39.782Z,99794.43
2018-07-31T19:00:19.786Z,99799.33
2018-07-31T19:02:58.452Z,99804.20
2018-07-31T19:05:33.231Z,99803.27
2018-07-31T19:08:12.265Z,99809.04
2018-07-31T19:10:50.406Z,99811.13
2018-07-31T19:13:29.791Z,99813.22
2018-07-31T19:16:05.666Z,99811.13
2018-07-31T19:18:39.449Z,99823.28
2018-07-31T19:21:18.447Z,99821.19
2018-07-31T19:23:54.062Z,99819.86
2018-07-31T19:26:30.560Z,99826.09
2018-07-31T19:29:08.907Z,99826.76
2018-07-31T19:31:43.272Z,99827.89
2018-07-31T19:34:20.910Z,99833.94
2018-07-31T19:36:57.043Z,99829.45
2018-07-31T19:39:30.890Z,99835.59
2018-07-31T19:42:07.287Z,99835.80
2018-07-31T19:44:44.085Z,99840.83
2018-07-31T19:47:20.224Z,99840.61
2018-07-31T19:49:59.511Z,99849.00
2018-07-31T19:52:42.529Z,99840.09
2018-07-31T19:55:23.576Z,99848.38
2018-07-31T19:57:59.124Z,99853.33
2018-07-31T20:00:36.571Z,99862.76
2018-07-31T20:03:12.476Z,99864.91
2018-07-31T20:06:08.560Z,99866.28
2018-07-31T20:08:44.698Z,99867.11
2018-07-31T20:11:23.276Z,99868.03
2018-07-31T20:13:57.373Z,99873.31
2018-07-31T20:16:34.159Z,99876.70
2018-07-31T20:19:09.384Z,99874.98
2018-07-31T20:21:50.047Z,99879.40
2018-07-31T20:24:30.537Z,99877.69
2018-07-31T20:27:08.643Z,99878.50
2018-07-31T20:29:49.316Z,99885.52
2018-07-31T20:32:27.648Z,99882.83
2018-07-31T20:35:08.826Z,99892.17
2018-07-31T20:37:45.673Z,99891.06
2018-07-31T20:40:19.909Z,99890.78
2018-07-31T20:42:56.121Z,99883.89
2018-07-31T20:45:32.046Z,99888.61
2018-07-31T20:48:11.399Z,99885.66
2018-07-31T20:50:45.941Z,99890.30
2018-07-31T20:53:20.640Z,99887.53
2018-07-31T20:55:58.643Z,99893.08
2018-07-31T20:58:33.352Z,99900.27
2018-07-31T21:01:07.611Z,99895.22
2018-07-31T21:03:42.710Z,99892.94
2018-07-31T21:06:23.574Z,99895.47
2018-07-31T21:08:59.522Z,99899.00
2018-07-31T21:11:43.889Z,99898.33
2018-07-31T21:14:21.757Z,99900.70
2018-07-31T21:16:59.730Z,99893.96
2018-07-31T21:19:36.104Z,99904.68
2018-07-31T21:22:24.245Z,99889.40
2018-07-31T21:25:03.558Z,99904.56
2018-07-31T21:27:42.426Z,99901.54
2018-07-31T21:30:21.524Z,99907.36
2018-07-31T21:32:58.313Z,99913.62
2018-07-31T21:35:38.619Z,99912.10
2018-07-31T21:38:14.104Z,99919.44
2018-07-31T21:40:50.434Z,99898.80
2018-07-31T21:43:25.346Z,99928.92
2018-07-31T21:45:59.639Z,99930.44
2018-07-31T21:48:38.452Z,99933.39
2018-07-31T21:51:15.619Z,99927.54
2018-07-31T21:53:50.593Z,99933.09
2018-07-31T21:56:30.822Z,99942.50
2018-07-31T21:59:06.789Z,99943.62
2018-07-31T22:05:04.434Z,99964.97
2018-07-31T22:07:42.613Z,99965.92
2018-07-31T22:10:17.694Z,99951.02
2018-07-31T22:12:52.538Z,99960.95
2018-07-31T22:15:27.753Z,99959.08
2018-07-31T22:18:03.269Z,99947.27
2018-07-31T22:20:37.985Z,99944.25
2018-07-31T22:23:12.806Z,99942.59
2018-07-31T22:25:47.068Z,99948.81
2018-07-31T22:28:23.073Z,99951.22
2018-07-31T22:30:56.678Z,99958.34
2018-07-31T22:33:32.966Z,99965.25
2018-07-31T22:36:09.366Z,99958.61
2018-07-31T22:38:44.810Z,99947.97
2018-07-31T22:41:19.730Z,99948.50
2018-07-31T22:43:53.064Z,99949.92
2018-07-31T22:46:26.949Z,99945.14
2018-07-31T22:49:00.561Z,99949.77
2018-07-31T22:51:35.533Z,99957.67
2018-07-31T22:54:09.345Z,99956.18
2018-07-31T22:56:45.809Z,99954.50
2018-07-31T22:59:19.308Z,99960.02
2018-07-31T23:01:52.834Z,99965.89
2018-07-31T23:04:26.068Z,99971.27
2018-07-31T23:06:59.950Z,99967.08
2018-07-31T23:09:35.197Z,99973.23
2018-07-31T23:12:09.179Z,99977.05
2018-07-31T23:14:43.424Z,99981.22
2018-07-31T23:17:18.503Z,99981.27
2018-07-31T23:19:52.195Z,99985.35
2018-07-31T23:22:42.283Z,99985.80
2018-07-31T23:25:16.595Z,99994.02
2018-07-31T23:27:50.630Z,99978.95
2018-07-31T23:30:24.451Z,99975.38
2018-07-31T23:32:58.243Z,99982.48
2018-07-31T23:35:33.479Z,99978.95
2018-07-31T23:38:09.131Z,99975.33
2018-07-31T23:40:42.538Z,99972.63
2018-07-31T23:43:18.341Z,99973.73
2018-07-31T23:45:52.189Z,99977.47
2018-07-31T23:48:36.295Z,99981.23
2018-07-31T23:51:09.642Z,99982.72
2018-07-31T23:53:43.791Z,99985.81
2018-07-31T23:56:17.657Z,99990.46
2018-07-31T23:58:51.925Z,99987.70
